Royal Center, IN (46978)

6:46 AM EDT on March 27, 2015 (GMT -0400)
Leroy's BarnYard | | Change Station
CLOSE
Current Station
Personal Weather Station
Location: Kewanna, IN
Elevation: 758 ft
Nearby Weather Stations

Elev 758 ft 40.99 °N, 86.35 °W | Updated 30 seconds ago

Mostly Cloudy
Mostly Cloudy
26.4 °F
Feels Like 22 °F
N
4.0
Wind Variable Wind from NNW
Gusts 5.0 mph

Today
High -- | Low -- °F
--% Chance of Precip.
Yesterday
High -- | Low -- °F
Precip. -- in
7:38 AM 8:05 PM
Waxing Crescent, 51% visible
Pressure 30.05 in
Visibility 10.0 miles
Clouds Mostly Cloudy 2000 ft
Mostly Cloudy 2900 ft
Windchill 22 °F
Dew Point 22 °F
Humidity 82%
Rainfall 0.00 in
Snow Depth Not available.
UV 0 out of 12
Pollen 1.10 out of 12
Air Quality Not available.
Flu Activity Not available.
METAR KGGP 271035Z AUTO 34009KT 10SM BKN020 BKN029 M02/M05 A3005 RMK AO2

More Conditions Fewer Conditions

Pressure 30.05 in
Visibility 10.0 miles
Clouds Mostly Cloudy 2000 ft
Mostly Cloudy 2900 ft
Windchill 22 °F
Dew Point 22 °F
Humidity 82%
Rainfall 0.00 in
Snow Depth Not available.
UV 0 out of 12
Pollen 1.10 out of 12
Air Quality Not available.
Flu Activity Not available.
METAR KGGP 271035Z AUTO 34009KT 10SM BKN020 BKN029 M02/M05 A3005 RMK AO2

More Conditions Fewer Conditions

10-Day Weather Forecast

Almanac

Astronomy

Mar. 27, 2015 Rise Set
Actual Time
Civil Twilight
Nautical Twilight
Astronomical Twilight
Moon
Length of Visible Light
Length of Day
Tomorrow will be .
, % of the Moon is Illuminated

Today's Extremes

State Highs State Lows

Community

WunderPhotos

Upload Photos

1,808,706 photos uploaded!

WunderBlogs® & News

Nearby

Air Quality

  Air Quality AQ Index Pollutant
Not available.

Snow Depth

Station Depth Elevation

Earthquake Activity

City Distance Mag. Time & Date
Minimum magnitude displayed is 2.5.

Coastal Water Temperatures

Place Temperature

Stations

Nearby Weather Stations

Station Location Temp. Windchill Dew Point Humidity Wind Precip. Elev Updated Type